sensor_id;sensor_type;location;lat;lon;timestamp;pressure;altitude;pressure_sealevel;temperature;humidity
60212;BME280;46079;48.686;15.598;2023-04-29T00:02:12;99587.06;;;19.99;42.99
60212;BME280;46079;48.686;15.598;2023-04-29T00:04:38;99584.59;;;19.97;43.16
60212;BME280;46079;48.686;15.598;2023-04-29T00:07:03;99586.22;;;19.98;43.03
60212;BME280;46079;48.686;15.598;2023-04-29T00:09:28;99592.31;;;19.99;43.08
60212;BME280;46079;48.686;15.598;2023-04-29T00:11:54;99583.59;;;19.98;43.16
60212;BME280;46079;48.686;15.598;2023-04-29T00:14:19;99583.59;;;19.98;43.04
60212;BME280;46079;48.686;15.598;2023-04-29T00:16:45;99580.97;;;19.98;43.06
60212;BME280;46079;48.686;15.598;2023-04-29T00:19:11;99581.97;;;19.97;43.09
60212;BME280;46079;48.686;15.598;2023-04-29T00:21:37;99586.22;;;19.98;43.18
60212;BME280;46079;48.686;15.598;2023-04-29T00:24:02;99586.38;;;19.97;42.96
60212;BME280;46079;48.686;15.598;2023-04-29T00:26:28;99587.22;;;19.97;43.14
60212;BME280;46079;48.686;15.598;2023-04-29T00:28:53;99586.38;;;19.97;43.00
60212;BME280;46079;48.686;15.598;2023-04-29T00:31:18;99589.84;;;19.97;42.97
60212;BME280;46079;48.686;15.598;2023-04-29T00:33:44;99583.75;;;19.97;43.18
60212;BME280;46079;48.686;15.598;2023-04-29T00:36:10;99589.84;;;19.97;42.92
60212;BME280;46079;48.686;15.598;2023-04-29T00:38:35;99590.81;;;19.96;43.28
60212;BME280;46079;48.686;15.598;2023-04-29T00:41:01;99582.94;;;19.96;43.17
60212;BME280;46079;48.686;15.598;2023-04-29T00:43:27;99576.00;;;19.95;43.28
60212;BME280;46079;48.686;15.598;2023-04-29T00:45:52;99579.34;;;19.97;43.13
60212;BME280;46079;48.686;15.598;2023-04-29T00:48:18;99579.34;;;19.97;43.23
60212;BME280;46079;48.686;15.598;2023-04-29T00:50:43;99580.31;;;19.96;42.96
60212;BME280;46079;48.686;15.598;2023-04-29T00:53:10;99584.59;;;19.97;43.24
60212;BME280;46079;48.686;15.598;2023-04-29T00:55:37;99577.69;;;19.96;43.03
60212;BME280;46079;48.686;15.598;2023-04-29T00:58:03;99577.69;;;19.96;43.08
60212;BME280;46079;48.686;15.598;2023-04-29T01:00:29;99572.44;;;19.96;43.17
60212;BME280;46079;48.686;15.598;2023-04-29T01:02:55;99576.00;;;19.95;43.05
60212;BME280;46079;48.686;15.598;2023-04-29T01:05:22;99573.25;;;19.97;43.26
60212;BME280;46079;48.686;15.598;2023-04-29T01:11:10;99573.38;;;19.95;43.26
60212;BME280;46079;48.686;15.598;2023-04-29T01:13:45;99573.38;;;19.95;43.24
60212;BME280;46079;48.686;15.598;2023-04-29T01:16:16;99572.44;;;19.96;43.03
60212;BME280;46079;48.686;15.598;2023-04-29T01:18:49;99577.81;;;19.95;43.21
60212;BME280;46079;48.686;15.598;2023-04-29T01:21:19;99563.88;;;19.94;43.15
60212;BME280;46079;48.686;15.598;2023-04-29T01:23:44;99569.94;;;19.95;43.14
60212;BME280;46079;48.686;15.598;2023-04-29T01:26:10;99569.13;;;19.94;43.21
60212;BME280;46079;48.686;15.598;2023-04-29T01:29:01;99576.00;;;19.95;43.08
60212;BME280;46079;48.686;15.598;2023-04-29T01:31:40;99576.00;;;19.95;43.12
60212;BME280;46079;48.686;15.598;2023-04-29T01:34:08;99574.38;;;19.94;43.02
60212;BME280;46079;48.686;15.598;2023-04-29T01:39:32;99568.31;;;19.94;43.42
60212;BME280;46079;48.686;15.598;2023-04-29T01:42:09;99570.06;;;19.93;43.38
60212;BME280;46079;48.686;15.598;2023-04-29T01:44:37;99569.13;;;19.94;43.09
60212;BME280;46079;48.686;15.598;2023-04-29T01:47:02;99566.50;;;19.94;43.45
60212;BME280;46079;48.686;15.598;2023-04-29T01:49:28;99570.94;;;19.94;43.16
60212;BME280;46079;48.686;15.598;2023-04-29T01:51:54;99571.75;;;19.94;43.12
60212;BME280;46079;48.686;15.598;2023-04-29T01:54:20;99564.81;;;19.93;43.36
60212;BME280;46079;48.686;15.598;2023-04-29T01:56:48;99559.56;;;19.93;43.29
60212;BME280;46079;48.686;15.598;2023-04-29T01:59:15;99564.81;;;19.93;43.05
60212;BME280;46079;48.686;15.598;2023-04-29T02:01:40;99572.69;;;19.93;43.30
60212;BME280;46079;48.686;15.598;2023-04-29T02:04:06;99564.81;;;19.93;42.96
60212;BME280;46079;48.686;15.598;2023-04-29T02:06:31;99569.13;;;19.94;43.05
60212;BME280;46079;48.686;15.598;2023-04-29T02:08:57;99577.00;;;19.94;43.32
60212;BME280;46079;48.686;15.598;2023-04-29T02:11:23;99571.75;;;19.94;43.35
60212;BME280;46079;48.686;15.598;2023-04-29T02:13:48;99578.81;;;19.94;43.28
60212;BME280;46079;48.686;15.598;2023-04-29T02:16:14;99571.88;;;19.93;42.91
60212;BME280;46079;48.686;15.598;2023-04-29T02:18:40;99563.19;;;19.92;43.02
60212;BME280;46079;48.686;15.598;2023-04-29T02:21:06;99566.63;;;19.93;43.12
60212;BME280;46079;48.686;15.598;2023-04-29T02:23:32;99561.53;;;19.91;43.09
60212;BME280;46079;48.686;15.598;2023-04-29T02:25:58;99569.13;;;19.94;43.26
60212;BME280;46079;48.686;15.598;2023-04-29T02:28:23;99567.44;;;19.93;43.32
60212;BME280;46079;48.686;15.598;2023-04-29T02:30:49;99571.06;;;19.92;43.23
60212;BME280;46079;48.686;15.598;2023-04-29T02:33:14;99570.06;;;19.93;43.16
60212;BME280;46079;48.686;15.598;2023-04-29T02:35:40;99566.63;;;19.93;43.37
60212;BME280;46079;48.686;15.598;2023-04-29T02:38:06;99567.59;;;19.92;43.56
60212;BME280;46079;48.686;15.598;2023-04-29T02:40:32;99559.75;;;19.92;43.37
60212;BME280;46079;48.686;15.598;2023-04-29T02:42:57;99562.38;;;19.92;43.09
60212;BME280;46079;48.686;15.598;2023-04-29T02:45:22;99564.16;;;19.91;43.14
60212;BME280;46079;48.686;15.598;2023-04-29T02:47:48;99560.69;;;19.91;43.49
60212;BME280;46079;48.686;15.598;2023-04-29T02:50:14;99563.19;;;19.92;43.05
60212;BME280;46079;48.686;15.598;2023-04-29T02:52:40;99562.50;;;19.90;43.15
60212;BME280;46079;48.686;15.598;2023-04-29T02:55:08;99559.88;;;19.90;43.23
60212;BME280;46079;48.686;15.598;2023-04-29T02:57:33;99556.28;;;19.91;43.30
60212;BME280;46079;48.686;15.598;2023-04-29T02:59:59;99544.13;;;19.90;43.25
60212;BME280;46079;48.686;15.598;2023-04-29T03:02:24;99545.78;;;19.91;43.34
60212;BME280;46079;48.686;15.598;2023-04-29T03:04:50;99543.16;;;19.91;43.14
60212;BME280;46079;48.686;15.598;2023-04-29T03:07:16;99535.41;;;19.90;43.16
60212;BME280;46079;48.686;15.598;2023-04-29T03:09:42;99537.06;;;19.91;43.40
60212;BME280;46079;48.686;15.598;2023-04-29T03:12:07;99537.22;;;19.89;43.15
60212;BME280;46079;48.686;15.598;2023-04-29T03:14:33;99544.13;;;19.90;43.30
60212;BME280;46079;48.686;15.598;2023-04-29T03:16:58;99538.88;;;19.90;43.34
60212;BME280;46079;48.686;15.598;2023-04-29T03:19:24;99540.66;;;19.90;43.52
60212;BME280;46079;48.686;15.598;2023-04-29T03:21:49;99553.66;;;19.91;43.49
60212;BME280;46079;48.686;15.598;2023-04-29T03:24:15;99553.78;;;19.90;43.36
60212;BME280;46079;48.686;15.598;2023-04-29T03:26:40;99575.63;;;19.90;43.34
60212;BME280;46079;48.686;15.598;2023-04-29T03:29:07;99571.34;;;19.89;43.36
60212;BME280;46079;48.686;15.598;2023-04-29T03:31:33;99571.19;;;19.91;43.40
60212;BME280;46079;48.686;15.598;2023-04-29T03:33:58;99566.91;;;19.90;43.25
60212;BME280;46079;48.686;15.598;2023-04-29T03:36:24;99570.38;;;19.90;43.35
60212;BME280;46079;48.686;15.598;2023-04-29T03:38:49;99566.91;;;19.90;43.45
60212;BME280;46079;48.686;15.598;2023-04-29T03:41:15;99559.19;;;19.88;43.44
60212;BME280;46079;48.686;15.598;2023-04-29T03:43:41;99563.47;;;19.89;43.22
60212;BME280;46079;48.686;15.598;2023-04-29T03:46:08;99569.53;;;19.90;43.41
60212;BME280;46079;48.686;15.598;2023-04-29T03:48:34;99566.09;;;19.89;43.12
60212;BME280;46079;48.686;15.598;2023-04-29T03:50:59;99564.28;;;19.90;43.42
60212;BME280;46079;48.686;15.598;2023-04-29T03:53:25;99558.34;;;19.88;43.31
60212;BME280;46079;48.686;15.598;2023-04-29T03:55:50;99571.34;;;19.89;43.28
60212;BME280;46079;48.686;15.598;2023-04-29T03:58:16;99565.28;;;19.89;43.42
60212;BME280;46079;48.686;15.598;2023-04-29T04:00:41;99569.69;;;19.88;43.40
60212;BME280;46079;48.686;15.598;2023-04-29T04:03:07;99563.47;;;19.89;43.37
60212;BME280;46079;48.686;15.598;2023-04-29T04:05:33;99569.69;;;19.88;43.30
60212;BME280;46079;48.686;15.598;2023-04-29T04:07:58;99570.53;;;19.89;43.37
60212;BME280;46079;48.686;15.598;2023-04-29T04:10:25;99565.28;;;19.89;43.14
60212;BME280;46079;48.686;15.598;2023-04-29T04:12:50;99566.09;;;19.89;43.41
60212;BME280;46079;48.686;15.598;2023-04-29T04:15:16;99566.22;;;19.88;43.15
60212;BME280;46079;48.686;15.598;2023-04-29T04:17:42;99571.47;;;19.88;43.39
60212;BME280;46079;48.686;15.598;2023-04-29T04:20:08;99572.31;;;19.88;43.50
60212;BME280;46079;48.686;15.598;2023-04-29T04:22:33;99568.03;;;19.87;43.46
60212;BME280;46079;48.686;15.598;2023-04-29T04:24:59;99574.94;;;19.88;43.44
60212;BME280;46079;48.686;15.598;2023-04-29T04:27:24;99577.56;;;19.88;43.25
60212;BME280;46079;48.686;15.598;2023-04-29T04:29:53;99580.19;;;19.88;43.29
60212;BME280;46079;48.686;15.598;2023-04-29T04:32:22;99579.34;;;19.88;43.23
60212;BME280;46079;48.686;15.598;2023-04-29T04:34:48;99579.34;;;19.88;43.24
60212;BME280;46079;48.686;15.598;2023-04-29T04:37:14;99580.19;;;19.88;43.32
60212;BME280;46079;48.686;15.598;2023-04-29T04:39:40;99578.53;;;19.87;43.40
60212;BME280;46079;48.686;15.598;2023-04-29T04:42:05;99578.53;;;19.87;43.21
60212;BME280;46079;48.686;15.598;2023-04-29T04:44:31;99584.59;;;19.88;43.46
60212;BME280;46079;48.686;15.598;2023-04-29T04:46:57;99581.16;;;19.87;43.24
60212;BME280;46079;48.686;15.598;2023-04-29T04:49:25;99579.34;;;19.88;43.27
60212;BME280;46079;48.686;15.598;2023-04-29T04:51:52;99578.53;;;19.87;43.46
60212;BME280;46079;48.686;15.598;2023-04-29T04:54:18;99583.78;;;19.87;43.43
60212;BME280;46079;48.686;15.598;2023-04-29T04:56:43;99579.34;;;19.88;43.40
60212;BME280;46079;48.686;15.598;2023-04-29T04:59:08;99570.66;;;19.87;43.51
60212;BME280;46079;48.686;15.598;2023-04-29T05:01:34;99568.03;;;19.87;43.58
60212;BME280;46079;48.686;15.598;2023-04-29T05:03:59;99577.72;;;19.87;43.46
60212;BME280;46079;48.686;15.598;2023-04-29T05:06:26;99577.72;;;19.87;43.45
60212;BME280;46079;48.686;15.598;2023-04-29T05:08:52;99577.72;;;19.87;43.32
60212;BME280;46079;48.686;15.598;2023-04-29T05:11:18;99583.78;;;19.87;43.23
60212;BME280;46079;48.686;15.598;2023-04-29T05:13:44;99586.41;;;19.87;43.32
60212;BME280;46079;48.686;15.598;2023-04-29T05:16:10;99583.78;;;19.87;43.49
60212;BME280;46079;48.686;15.598;2023-04-29T05:18:36;99583.78;;;19.87;43.31
60212;BME280;46079;48.686;15.598;2023-04-29T05:21:01;99588.19;;;19.87;43.32
60212;BME280;46079;48.686;15.598;2023-04-29T05:23:26;99582.13;;;19.86;43.58
60212;BME280;46079;48.686;15.598;2023-04-29T05:25:52;99586.41;;;19.87;43.53
60212;BME280;46079;48.686;15.598;2023-04-29T05:28:18;99581.97;;;19.88;43.22
60212;BME280;46079;48.686;15.598;2023-04-29T05:30:43;99578.69;;;19.86;43.45
60212;BME280;46079;48.686;15.598;2023-04-29T05:33:09;99580.34;;;19.87;43.54
60212;BME280;46079;48.686;15.598;2023-04-29T05:35:35;99583.78;;;19.87;43.65
60212;BME280;46079;48.686;15.598;2023-04-29T05:38:01;99589.03;;;19.87;43.32
60212;BME280;46079;48.686;15.598;2023-04-29T05:40:27;99579.50;;;19.86;43.40
60212;BME280;46079;48.686;15.598;2023-04-29T05:42:53;99589.03;;;19.87;43.45
60212;BME280;46079;48.686;15.598;2023-04-29T05:45:18;99588.19;;;19.87;43.38
60212;BME280;46079;48.686;15.598;2023-04-29T05:47:43;99587.38;;;19.86;43.45
60212;BME280;46079;48.686;15.598;2023-04-29T05:50:09;99586.56;;;19.86;43.33
60212;BME280;46079;48.686;15.598;2023-04-29T05:52:36;99588.19;;;19.87;43.49
60212;BME280;46079;48.686;15.598;2023-04-29T05:55:01;99594.44;;;19.86;43.13
60212;BME280;46079;48.686;15.598;2023-04-29T05:57:27;99610.84;;;19.88;43.52
60212;BME280;46079;48.686;15.598;2023-04-29T05:59:52;99605.75;;;19.86;43.46
60212;BME280;46079;48.686;15.598;2023-04-29T06:02:19;99610.03;;;19.87;43.63
60212;BME280;46079;48.686;15.598;2023-04-29T06:04:45;99607.41;;;19.87;43.42
60212;BME280;46079;48.686;15.598;2023-04-29T06:07:12;99606.56;;;19.87;43.43
60212;BME280;46079;48.686;15.598;2023-04-29T06:09:38;99605.75;;;19.86;43.63
60212;BME280;46079;48.686;15.598;2023-04-29T06:12:04;99603.13;;;19.86;43.39
60212;BME280;46079;48.686;15.598;2023-04-29T06:14:29;99608.38;;;19.86;43.58
60212;BME280;46079;48.686;15.598;2023-04-29T06:16:55;99611.81;;;19.87;43.58
60212;BME280;46079;48.686;15.598;2023-04-29T06:19:20;99604.78;;;19.87;43.31
60212;BME280;46079;48.686;15.598;2023-04-29T06:21:46;99603.97;;;19.87;43.45
60212;BME280;46079;48.686;15.598;2023-04-29T06:24:11;99613.63;;;19.86;43.44
60212;BME280;46079;48.686;15.598;2023-04-29T06:26:36;99615.28;;;19.87;43.42
60212;BME280;46079;48.686;15.598;2023-04-29T06:29:02;99617.06;;;19.87;43.40
60212;BME280;46079;48.686;15.598;2023-04-29T06:31:27;99612.81;;;19.86;43.58
60212;BME280;46079;48.686;15.598;2023-04-29T06:33:53;99602.16;;;19.87;43.60
60212;BME280;46079;48.686;15.598;2023-04-29T06:36:19;99610.03;;;19.87;43.63
60212;BME280;46079;48.686;15.598;2023-04-29T06:38:44;99610.84;;;19.88;43.68
60212;BME280;46079;48.686;15.598;2023-04-29T06:41:10;99608.09;;;19.89;43.64
60212;BME280;46079;48.686;15.598;2023-04-29T06:43:35;99608.78;;;19.91;43.44
60212;BME280;46079;48.686;15.598;2023-04-29T06:46:01;99608.63;;;19.93;43.48
60212;BME280;46079;48.686;15.598;2023-04-29T06:48:26;99613.75;;;19.94;43.54
60212;BME280;46079;48.686;15.598;2023-04-29T06:50:53;99618.00;;;19.95;43.42
60212;BME280;46079;48.686;15.598;2023-04-29T06:53:20;99624.94;;;19.96;43.49
60212;BME280;46079;48.686;15.598;2023-04-29T06:55:46;99626.59;;;19.97;43.79
60212;BME280;46079;48.686;15.598;2023-04-29T06:58:15;99622.31;;;19.96;43.71
60212;BME280;46079;48.686;15.598;2023-04-29T07:00:43;99622.31;;;19.96;43.61
60212;BME280;46079;48.686;15.598;2023-04-29T07:03:09;99622.44;;;19.95;43.60
60212;BME280;46079;48.686;15.598;2023-04-29T07:05:35;99624.09;;;19.96;43.84
60212;BME280;46079;48.686;15.598;2023-04-29T07:08:03;99630.19;;;19.96;43.62
60212;BME280;46079;48.686;15.598;2023-04-29T07:10:29;99624.25;;;19.94;43.74
60212;BME280;46079;48.686;15.598;2023-04-29T07:12:55;99619.69;;;19.96;43.58
60212;BME280;46079;48.686;15.598;2023-04-29T07:15:20;99620.66;;;19.95;43.80
60212;BME280;46079;48.686;15.598;2023-04-29T07:17:46;99619.69;;;19.96;43.60
60212;BME280;46079;48.686;15.598;2023-04-29T07:20:12;99615.09;;;19.98;43.60
60212;BME280;46079;48.686;15.598;2023-04-29T07:22:37;99614.16;;;19.99;43.64
60212;BME280;46079;48.686;15.598;2023-04-29T07:25:02;99609.72;;;20.00;43.83
60212;BME280;46079;48.686;15.598;2023-04-29T07:27:28;99607.22;;;19.98;43.87
60212;BME280;46079;48.686;15.598;2023-04-29T07:30:01;99611.53;;;19.99;43.75
60212;BME280;46079;48.686;15.598;2023-04-29T07:32:26;99614.97;;;20.00;43.78
60212;BME280;46079;48.686;15.598;2023-04-29T07:34:51;99611.25;;;20.03;43.76
60212;BME280;46079;48.686;15.598;2023-04-29T07:37:18;99612.88;;;20.04;43.77
60212;BME280;46079;48.686;15.598;2023-04-29T07:39:43;99622.97;;;20.08;43.69
60212;BME280;46079;48.686;15.598;2023-04-29T07:42:09;99617.56;;;20.10;43.69
60212;BME280;46079;48.686;15.598;2023-04-29T07:44:35;99622.50;;;20.13;43.70
60212;BME280;46079;48.686;15.598;2023-04-29T07:47:01;99626.00;;;20.13;43.37
60212;BME280;46079;48.686;15.598;2023-04-29T07:49:29;99626.13;;;20.12;43.44
60212;BME280;46079;48.686;15.598;2023-04-29T07:51:54;99634.69;;;20.14;43.58
60212;BME280;46079;48.686;15.598;2023-04-29T07:54:20;99628.75;;;20.12;43.49
60212;BME280;46079;48.686;15.598;2023-04-29T07:56:46;99635.66;;;20.13;43.62
60212;BME280;46079;48.686;15.598;2023-04-29T07:59:12;99638.44;;;20.11;43.51
60212;BME280;46079;48.686;15.598;2023-04-29T08:01:39;99641.88;;;20.12;43.61
60212;BME280;46079;48.686;15.598;2023-04-29T08:04:05;99648.13;;;20.11;43.66
60212;BME280;46079;48.686;15.598;2023-04-29T08:06:31;99638.56;;;20.10;43.71
60212;BME280;46079;48.686;15.598;2023-04-29T08:08:57;99639.41;;;20.10;43.84
60212;BME280;46079;48.686;15.598;2023-04-29T08:11:22;99639.53;;;20.09;43.85
60212;BME280;46079;48.686;15.598;2023-04-29T08:13:49;99635.94;;;20.10;43.72
60212;BME280;46079;48.686;15.598;2023-04-29T08:16:15;99635.13;;;20.09;43.92
60212;BME280;46079;48.686;15.598;2023-04-29T08:18:40;99634.28;;;20.09;43.94
60212;BME280;46079;48.686;15.598;2023-04-29T08:21:07;99633.31;;;20.10;43.86
60212;BME280;46079;48.686;15.598;2023-04-29T08:23:33;99637.44;;;20.12;43.58
60212;BME280;46079;48.686;15.598;2023-04-29T08:25:59;99639.13;;;20.13;43.76
60212;BME280;46079;48.686;15.598;2023-04-29T08:28:25;99644.38;;;20.13;43.82
60212;BME280;46079;48.686;15.598;2023-04-29T08:30:50;99635.66;;;20.13;43.56
60212;BME280;46079;48.686;15.598;2023-04-29T08:33:16;99639.94;;;20.14;43.49
60212;BME280;46079;48.686;15.598;2023-04-29T08:35:41;99638.97;;;20.15;43.93
60212;BME280;46079;48.686;15.598;2023-04-29T08:38:08;99642.41;;;20.15;43.69
60212;BME280;46079;48.686;15.598;2023-04-29T08:40:44;99644.22;;;20.15;43.54
60212;BME280;46079;48.686;15.598;2023-04-29T08:43:14;99640.63;;;20.16;43.64
60212;BME280;46079;48.686;15.598;2023-04-29T08:45:42;99638.00;;;20.16;43.75
60212;BME280;46079;48.686;15.598;2023-04-29T08:48:08;99635.38;;;20.16;43.65
60212;BME280;46079;48.686;15.598;2023-04-29T08:50:38;99640.63;;;20.16;43.77
60212;BME280;46079;48.686;15.598;2023-04-29T08:53:12;99644.91;;;20.17;43.72
60212;BME280;46079;48.686;15.598;2023-04-29T08:58:06;99638.00;;;20.16;43.60
60212;BME280;46079;48.686;15.598;2023-04-29T09:00:33;99637.84;;;20.17;43.82
60212;BME280;46079;48.686;15.598;2023-04-29T09:02:59;99631.78;;;20.17;43.82
60212;BME280;46079;48.686;15.598;2023-04-29T09:05:25;99625.72;;;20.16;43.75
60212;BME280;46079;48.686;15.598;2023-04-29T09:07:51;99626.53;;;20.17;43.71
60212;BME280;46079;48.686;15.598;2023-04-29T09:10:17;99619.63;;;20.16;43.70
60212;BME280;46079;48.686;15.598;2023-04-29T09:12:43;99618.66;;;20.17;43.77
60212;BME280;46079;48.686;15.598;2023-04-29T09:15:10;99614.38;;;20.16;43.76
60212;BME280;46079;48.686;15.598;2023-04-29T09:20:24;99631.78;;;20.17;43.65
60212;BME280;46079;48.686;15.598;2023-04-29T09:22:52;99624.88;;;20.16;43.97
60212;BME280;46079;48.686;15.598;2023-04-29T09:25:18;99633.59;;;20.16;44.09
60212;BME280;46079;48.686;15.598;2023-04-29T09:27:45;99640.63;;;20.16;44.00
60212;BME280;46079;48.686;15.598;2023-04-29T09:30:10;99643.41;;;20.14;43.86
60212;BME280;46079;48.686;15.598;2023-04-29T09:32:37;99634.69;;;20.14;43.82
60212;BME280;46079;48.686;15.598;2023-04-29T09:35:24;99633.03;;;20.13;44.05
60212;BME280;46079;48.686;15.598;2023-04-29T09:37:50;99630.41;;;20.13;44.19
60212;BME280;46079;48.686;15.598;2023-04-29T09:40:31;99646.16;;;20.13;44.14
60212;BME280;46079;48.686;15.598;2023-04-29T09:42:57;99648.13;;;20.11;44.22
60212;BME280;46079;48.686;15.598;2023-04-29T09:45:36;99654.19;;;20.11;44.13
60212;BME280;46079;48.686;15.598;2023-04-29T09:48:05;99650.75;;;20.11;44.04
60212;BME280;46079;48.686;15.598;2023-04-29T09:50:32;99645.50;;;20.11;44.22
60212;BME280;46079;48.686;15.598;2023-04-29T09:52:58;99648.94;;;20.11;44.13
60212;BME280;46079;48.686;15.598;2023-04-29T09:55:25;99645.50;;;20.11;44.16
60212;BME280;46079;48.686;15.598;2023-04-29T09:57:57;99648.13;;;20.11;44.12
60212;BME280;46079;48.686;15.598;2023-04-29T10:00:23;99655.16;;;20.10;44.05
60212;BME280;46079;48.686;15.598;2023-04-29T10:02:50;99652.53;;;20.10;44.22
60212;BME280;46079;48.686;15.598;2023-04-29T10:05:16;99646.44;;;20.10;44.19
60212;BME280;46079;48.686;15.598;2023-04-29T10:07:42;99650.03;;;20.09;44.27
60212;BME280;46079;48.686;15.598;2023-04-29T10:10:08;99658.75;;;20.09;44.23
60212;BME280;46079;48.686;15.598;2023-04-29T10:12:36;99665.81;;;20.09;43.92
60212;BME280;46079;48.686;15.598;2023-04-29T10:17:48;99659.72;;;20.08;44.04
60212;BME280;46079;48.686;15.598;2023-04-29T10:20:22;99656.28;;;20.08;44.02
60212;BME280;46079;48.686;15.598;2023-04-29T10:22:50;99654.31;;;20.10;43.87
60212;BME280;46079;48.686;15.598;2023-04-29T10:25:19;99655.28;;;20.09;43.90
60212;BME280;46079;48.686;15.598;2023-04-29T10:27:46;99642.16;;;20.09;44.06
60212;BME280;46079;48.686;15.598;2023-04-29T10:30:14;99638.56;;;20.10;44.02
60212;BME280;46079;48.686;15.598;2023-04-29T10:32:41;99641.19;;;20.10;44.02
60212;BME280;46079;48.686;15.598;2023-04-29T10:35:09;99634.28;;;20.09;43.79
60212;BME280;46079;48.686;15.598;2023-04-29T10:37:35;99638.44;;;20.11;43.98
60212;BME280;46079;48.686;15.598;2023-04-29T10:40:23;99631.53;;;20.10;43.95
60212;BME280;46079;48.686;15.598;2023-04-29T10:42:52;99621.84;;;20.11;43.92
60212;BME280;46079;48.686;15.598;2023-04-29T10:45:26;99616.59;;;20.11;43.99
60212;BME280;46079;48.686;15.598;2023-04-29T10:53:13;99609.56;;;20.11;44.25
60212;BME280;46079;48.686;15.598;2023-04-29T10:55:40;99613.97;;;20.11;43.95
60212;BME280;46079;48.686;15.598;2023-04-29T10:58:41;99612.19;;;20.11;44.14
60212;BME280;46079;48.686;15.598;2023-04-29T11:01:13;99616.59;;;20.11;43.95
60212;BME280;46079;48.686;15.598;2023-04-29T11:06:15;99600.84;;;20.11;44.12
60212;BME280;46079;48.686;15.598;2023-04-29T11:08:40;99585.22;;;20.09;43.94
60212;BME280;46079;48.686;15.598;2023-04-29T11:11:07;99584.28;;;20.10;44.12
60212;BME280;46079;48.686;15.598;2023-04-29T11:13:37;99573.91;;;20.09;44.13
60212;BME280;46079;48.686;15.598;2023-04-29T11:16:07;99588.66;;;20.10;44.14
60212;BME280;46079;48.686;15.598;2023-04-29T11:18:34;99576.53;;;20.09;44.12
60212;BME280;46079;48.686;15.598;2023-04-29T11:23:34;99562.41;;;20.10;43.99
60212;BME280;46079;48.686;15.598;2023-04-29T11:26:00;99555.53;;;20.09;44.12
60212;BME280;46079;48.686;15.598;2023-04-29T11:28:32;99565.19;;;20.08;44.10
60212;BME280;46079;48.686;15.598;2023-04-29T11:30:58;99568.66;;;20.09;43.89
60212;BME280;46079;48.686;15.598;2023-04-29T11:33:24;99574.88;;;20.08;44.21
60212;BME280;46079;48.686;15.598;2023-04-29T11:35:52;99575.72;;;20.08;44.07
60212;BME280;46079;48.686;15.598;2023-04-29T11:38:23;99574.03;;;20.07;44.00
60212;BME280;46079;48.686;15.598;2023-04-29T11:40:50;99580.13;;;20.08;44.25
60212;BME280;46079;48.686;15.598;2023-04-29T11:43:16;99578.47;;;20.07;44.07
60212;BME280;46079;48.686;15.598;2023-04-29T11:45:44;99593.25;;;20.08;44.30
60212;BME280;46079;48.686;15.598;2023-04-29T11:48:19;99567.97;;;20.07;44.08
60212;BME280;46079;48.686;15.598;2023-04-29T11:50:46;99564.50;;;20.06;44.18
60212;BME280;46079;48.686;15.598;2023-04-29T11:53:12;99559.25;;;20.06;44.29
60212;BME280;46079;48.686;15.598;2023-04-29T11:55:41;99554.00;;;20.06;44.24
60212;BME280;46079;48.686;15.598;2023-04-29T11:58:07;99554.84;;;20.07;44.07
60212;BME280;46079;48.686;15.598;2023-04-29T12:00:33;99551.38;;;20.06;44.19
60212;BME280;46079;48.686;15.598;2023-04-29T12:02:58;99537.44;;;20.06;44.11
60212;BME280;46079;48.686;15.598;2023-04-29T12:05:25;99540.06;;;20.06;44.14
60212;BME280;46079;48.686;15.598;2023-04-29T12:07:50;99557.47;;;20.07;44.30
60212;BME280;46079;48.686;15.598;2023-04-29T12:10:16;99567.97;;;20.07;44.16
60212;BME280;46079;48.686;15.598;2023-04-29T12:12:41;99578.47;;;20.07;44.26
60212;BME280;46079;48.686;15.598;2023-04-29T12:15:11;99572.38;;;20.06;44.12
60212;BME280;46079;48.686;15.598;2023-04-29T12:17:37;99561.06;;;20.06;44.39
60212;BME280;46079;48.686;15.598;2023-04-29T12:20:03;99554.84;;;20.07;44.28
60212;BME280;46079;48.686;15.598;2023-04-29T12:22:32;99553.19;;;20.06;44.18
60212;BME280;46079;48.686;15.598;2023-04-29T12:24:58;99570.75;;;20.05;44.21
60212;BME280;46079;48.686;15.598;2023-04-29T12:27:23;99563.69;;;20.06;44.17
60212;BME280;46079;48.686;15.598;2023-04-29T12:29:51;99566.31;;;20.06;44.38
60212;BME280;46079;48.686;15.598;2023-04-29T12:32:17;99559.25;;;20.06;44.29
60212;BME280;46079;48.686;15.598;2023-04-29T12:34:46;99565.50;;;20.05;44.18
60212;BME280;46079;48.686;15.598;2023-04-29T12:37:13;99569.88;;;20.05;44.37
60212;BME280;46079;48.686;15.598;2023-04-29T12:39:40;99575.16;;;20.05;44.00
60212;BME280;46079;48.686;15.598;2023-04-29T12:42:05;99571.69;;;20.04;44.22
60212;BME280;46079;48.686;15.598;2023-04-29T12:44:34;99569.88;;;20.05;44.26
60212;BME280;46079;48.686;15.598;2023-04-29T12:47:07;99555.94;;;20.04;44.30
60212;BME280;46079;48.686;15.598;2023-04-29T12:49:33;99567.28;;;20.05;44.43
60212;BME280;46079;48.686;15.598;2023-04-29T12:51:58;99571.84;;;20.03;44.37
60212;BME280;46079;48.686;15.598;2023-04-29T12:54:24;99572.69;;;20.03;44.29
60212;BME280;46079;48.686;15.598;2023-04-29T12:56:49;99574.31;;;20.04;44.29
60212;BME280;46079;48.686;15.598;2023-04-29T12:59:15;99584.00;;;20.04;44.40
60212;BME280;46079;48.686;15.598;2023-04-29T13:01:41;99585.81;;;20.03;43.99
60212;BME280;46079;48.686;15.598;2023-04-29T13:04:06;99596.31;;;20.03;44.31
60212;BME280;46079;48.686;15.598;2023-04-29T13:06:33;99598.94;;;20.03;44.36
60212;BME280;46079;48.686;15.598;2023-04-29T13:09:07;99595.50;;;20.03;44.38
60212;BME280;46079;48.686;15.598;2023-04-29T13:11:39;99602.38;;;20.04;44.60
60212;BME280;46079;48.686;15.598;2023-04-29T13:14:05;99590.06;;;20.04;44.33